Time;durP1;ratioP1;P1;durP2;ratioP2;P2;SDS_P1;SDS_P2;PMS_P1;PMS_P2;Temp;Humidity;BMP_temperature;BMP_pressure;BME280_temperature;BME280_humidity;BME280_pressure;Samples;Min_cycle;Max_cycle;Signal;HPM_P1;HPM_P2
2022/04/16 00:00:17;;;;;;;19.57;12.13;;;9.70;99.90;;;;;;4879972;29;20521;-64
2022/04/16 00:02:45;;;;;;;25.37;13.33;;;9.60;99.90;;;;;;4879942;29;20226;-63
2022/04/16 00:05:10;;;;;;;22.17;13.23;;;9.60;99.90;;;;;;4863350;29;20191;-63
2022/04/16 00:07:36;;;;;;;21.27;12.27;;;9.60;99.90;;;;;;4879935;29;20190;-63
2022/04/16 00:10:03;;;;;;;24.00;12.40;;;9.50;99.90;;;;;;4879805;29;20185;-64
2022/04/16 00:12:28;;;;;;;24.40;14.17;;;9.50;99.90;;;;;;4879598;29;20181;-63
2022/04/16 00:14:55;;;;;;;21.83;12.20;;;9.50;99.90;;;;;;4879843;29;20207;-63
2022/04/16 00:17:21;;;;;;;20.83;12.53;;;9.50;99.90;;;;;;4879919;29;20193;-63
2022/04/16 00:19:47;;;;;;;21.47;12.07;;;9.50;99.90;;;;;;4878317;29;20200;-62
2022/04/16 00:22:13;;;;;;;20.73;12.63;;;9.50;99.90;;;;;;4879759;29;20211;-62
2022/04/16 00:24:40;;;;;;;19.13;11.67;;;9.50;99.90;;;;;;4879189;29;20281;-63
2022/04/16 00:27:07;;;;;;;21.83;12.03;;;9.50;99.90;;;;;;4879532;29;20646;-62
2022/04/16 00:29:34;;;;;;;20.93;11.47;;;9.60;99.90;;;;;;4847342;29;20284;-62
2022/04/16 00:32:00;;;;;;;22.20;11.87;;;9.50;99.90;;;;;;4879390;29;20198;-62
2022/04/16 00:34:26;;;;;;;20.33;11.40;;;9.60;99.90;;;;;;4879267;29;20185;-62
2022/04/16 00:36:52;;;;;;;19.77;11.47;;;9.60;99.90;;;;;;4879563;29;20280;-62
2022/04/16 00:39:17;;;;;;;26.77;12.37;;;9.60;99.90;;;;;;4879303;29;20216;-63
2022/04/16 00:41:43;;;;;;;18.53;11.53;;;9.60;99.90;;;;;;4879508;29;20189;-62
2022/04/16 00:44:09;;;;;;;20.20;12.00;;;9.70;99.90;;;;;;4879250;29;20233;-62
2022/04/16 00:46:36;;;;;;;18.50;11.53;;;9.70;99.90;;;;;;4876814;29;20243;-62
2022/04/16 00:49:02;;;;;;;19.53;12.90;;;9.80;99.90;;;;;;4879055;29;20625;-62
2022/04/16 00:51:29;;;;;;;22.57;12.33;;;9.80;99.90;;;;;;4878707;29;20275;-63
2022/04/16 00:53:54;;;;;;;18.23;11.33;;;9.80;99.90;;;;;;4879369;29;20707;-63
2022/04/16 00:56:20;;;;;;;19.57;11.30;;;9.80;99.90;;;;;;4879380;29;20237;-62
2022/04/16 00:58:46;;;;;;;22.43;11.07;;;9.80;99.90;;;;;;4879015;29;20196;-63
2022/04/16 01:01:12;;;;;;;20.23;11.60;;;9.90;99.90;;;;;;4879045;29;20194;-64
2022/04/16 01:03:39;;;;;;;20.60;11.10;;;9.90;99.90;;;;;;4878985;29;20666;-63
2022/04/16 01:06:05;;;;;;;25.80;11.70;;;9.90;99.90;;;;;;4879126;29;20214;-63
2022/04/16 01:08:31;;;;;;;17.77;10.83;;;9.90;99.90;;;;;;4878702;29;20527;-63
2022/04/16 01:10:56;;;;;;;37.53;11.57;;;10.00;99.90;;;;;;4878989;29;20185;-63
2022/04/16 01:13:22;;;;;;;17.73;10.97;;;10.00;99.90;;;;;;4879138;29;20201;-63
2022/04/16 01:15:48;;;;;;;18.30;11.03;;;10.00;99.90;;;;;;4878805;29;20205;-63
2022/04/16 01:18:14;;;;;;;20.23;11.10;;;10.00;99.90;;;;;;4878917;29;20695;-63
2022/04/16 01:20:41;;;;;;;18.93;11.20;;;10.10;99.90;;;;;;4878541;29;20304;-63
2022/04/16 01:23:07;;;;;;;17.30;10.93;;;10.10;99.90;;;;;;4878462;29;20211;-63
2022/04/16 01:25:35;;;;;;;20.07;11.60;;;10.10;99.90;;;;;;4878571;29;20665;-62
2022/04/16 01:28:01;;;;;;;18.17;11.50;;;10.10;99.90;;;;;;4878563;29;20201;-62
2022/04/16 01:30:28;;;;;;;20.03;11.57;;;10.10;99.90;;;;;;4878405;29;20644;-62
2022/04/16 01:32:54;;;;;;;18.73;11.40;;;10.10;99.90;;;;;;4878429;29;20634;-62
2022/04/16 01:35:20;;;;;;;20.30;11.23;;;10.00;99.90;;;;;;4861727;29;20199;-63
2022/04/16 01:37:46;;;;;;;17.93;11.47;;;10.00;99.90;;;;;;4878149;29;20203;-62
2022/04/16 01:40:14;;;;;;;22.53;13.00;;;10.00;99.90;;;;;;4878421;29;20195;-62
2022/04/16 01:42:41;;;;;;;20.80;12.53;;;10.00;99.90;;;;;;4878312;29;20283;-62
2022/04/16 01:45:10;;;;;;;22.20;12.00;;;10.00;99.90;;;;;;4878193;29;20680;-63
2022/04/16 01:47:38;;;;;;;19.07;11.97;;;10.00;99.90;;;;;;4877899;29;20216;-62
2022/04/16 01:50:07;;;;;;;20.57;11.83;;;9.90;99.90;;;;;;4877860;29;20295;-62
2022/04/16 01:52:34;;;;;;;23.97;13.00;;;9.90;99.90;;;;;;4877945;29;20206;-63
2022/04/16 01:55:01;;;;;;;22.30;12.50;;;9.90;99.90;;;;;;4878047;29;20278;-62
2022/04/16 01:57:26;;;;;;;22.53;12.03;;;9.90;99.90;;;;;;4878227;29;20209;-64
2022/04/16 01:59:53;;;;;;;22.90;12.90;;;9.90;99.90;;;;;;4877921;29;20188;-62
2022/04/16 02:02:22;;;;;;;22.83;13.20;;;9.90;99.90;;;;;;4877986;29;20259;-62
2022/04/16 02:04:48;;;;;;;21.07;12.90;;;9.90;99.90;;;;;;4877099;29;20341;-62
2022/04/16 02:07:13;;;;;;;24.17;13.80;;;9.90;99.90;;;;;;4877868;29;20228;-64
2022/04/16 02:09:40;;;;;;;27.07;14.73;;;9.90;99.90;;;;;;4877989;29;20213;-63
2022/04/16 02:12:07;;;;;;;25.97;15.70;;;9.90;99.90;;;;;;4878119;29;20189;-63
2022/04/16 02:14:33;;;;;;;22.60;14.30;;;9.90;99.90;;;;;;4877547;29;20196;-62
2022/04/16 02:16:59;;;;;;;23.80;14.53;;;9.90;99.90;;;;;;4877644;29;20191;-63
2022/04/16 02:19:25;;;;;;;23.50;14.53;;;9.90;99.90;;;;;;4877350;29;20203;-63
2022/04/16 02:21:51;;;;;;;24.23;15.13;;;9.90;99.90;;;;;;4877794;29;20280;-64
2022/04/16 02:24:17;;;;;;;21.80;13.97;;;9.90;99.90;;;;;;4860667;29;20294;-65
2022/04/16 02:26:44;;;;;;;18.87;13.23;;;9.90;99.90;;;;;;4877474;29;20662;-63
2022/04/16 02:29:10;;;;;;;19.87;12.70;;;9.90;99.90;;;;;;4877269;29;20182;-64
2022/04/16 02:31:37;;;;;;;22.00;13.73;;;9.90;99.90;;;;;;4877020;29;20722;-63
2022/04/16 02:34:05;;;;;;;19.40;11.87;;;9.90;99.90;;;;;;4877308;29;20190;-63
2022/04/16 02:36:31;;;;;;;18.63;12.13;;;9.90;99.90;;;;;;4877207;29;20201;-63
2022/04/16 02:38:57;;;;;;;18.67;11.93;;;9.90;99.90;;;;;;4845569;29;20627;-63
2022/04/16 02:41:24;;;;;;;18.30;11.37;;;9.90;99.90;;;;;;4877351;29;20189;-63
2022/04/16 02:43:50;;;;;;;21.00;12.40;;;9.90;99.90;;;;;;4877261;29;20783;-64
2022/04/16 02:49:04;;;;;;;18.83;12.33;;;9.80;99.90;;;;;;4863177;29;20198;-64
2022/04/16 02:51:29;;;;;;;21.47;12.20;;;9.80;99.90;;;;;;4877372;29;20263;-63
2022/04/16 02:53:55;;;;;;;19.20;10.90;;;9.80;99.90;;;;;;4860322;29;20201;-63
2022/04/16 02:56:21;;;;;;;19.67;11.70;;;9.80;99.90;;;;;;4877301;29;20246;-63
2022/04/16 02:58:46;;;;;;;21.27;12.30;;;9.90;99.90;;;;;;4877222;29;20190;-63
2022/04/16 03:01:12;;;;;;;24.23;12.70;;;9.80;99.90;;;;;;4877044;29;20190;-63
2022/04/16 03:03:38;;;;;;;19.50;11.43;;;9.80;99.90;;;;;;4876876;29;20286;-63
2022/04/16 03:06:03;;;;;;;22.43;12.70;;;9.80;99.90;;;;;;4877239;29;20205;-63
2022/04/16 03:08:29;;;;;;;17.57;10.10;;;9.70;99.90;;;;;;4877562;29;20181;-63
2022/04/16 03:10:55;;;;;;;26.80;12.37;;;9.70;99.90;;;;;;4860190;29;20188;-63
2022/04/16 03:13:21;;;;;;;19.33;10.27;;;9.70;99.90;;;;;;4877353;29;20196;-63
2022/04/16 03:18:31;;;;;;;19.77;10.37;;;9.70;99.90;;;;;;4881313;29;20206;-63
2022/04/16 03:20:58;;;;;;;16.73;10.57;;;9.70;99.90;;;;;;4880903;29;20197;-63
2022/04/16 03:23:25;;;;;;;17.87;10.60;;;9.70;99.90;;;;;;4880965;29;20210;-64
2022/04/16 03:25:53;;;;;;;18.53;10.70;;;9.70;99.90;;;;;;4880490;29;20300;-63
2022/04/16 03:28:20;;;;;;;16.97;10.63;;;9.60;99.90;;;;;;4880861;29;20254;-63
2022/04/16 03:30:46;;;;;;;17.20;9.77;;;9.70;99.90;;;;;;4880740;29;20192;-64
2022/04/16 03:33:11;;;;;;;16.20;10.07;;;9.70;99.90;;;;;;4880608;29;20182;-64
2022/04/16 03:35:37;;;;;;;14.93;8.80;;;9.70;99.90;;;;;;4880438;29;20613;-64
2022/04/16 03:38:03;;;;;;;17.07;10.17;;;9.70;99.90;;;;;;4880824;29;20193;-64
2022/04/16 03:40:29;;;;;;;17.70;10.27;;;9.70;99.90;;;;;;4880646;29;20653;-63
2022/04/16 03:42:59;;;;;;;26.53;11.33;;;9.70;99.90;;;;;;4879721;29;20193;-63
2022/04/16 03:45:31;;;;;;;15.93;10.77;;;9.70;99.90;;;;;;4880116;29;20177;-63
2022/04/16 03:47:58;;;;;;;18.43;10.20;;;9.70;99.90;;;;;;4880106;29;20275;-63
2022/04/16 03:50:26;;;;;;;18.67;11.90;;;9.80;99.90;;;;;;4879788;29;20184;-64
2022/04/16 03:52:53;;;;;;;20.57;11.20;;;9.80;99.90;;;;;;4879852;29;20185;-64
2022/04/16 04:00:54;;;;;;;20.10;12.13;;;9.90;99.90;;;;;;4879848;29;20198;-63
2022/04/16 04:03:20;;;;;;;32.33;16.70;;;10.00;99.90;;;;;;4880105;29;20191;-64
2022/04/16 04:05:48;;;;;;;28.23;18.10;;;10.00;99.90;;;;;;4879963;29;20637;-63
2022/04/16 04:08:14;;;;;;;34.37;20.80;;;10.00;99.90;;;;;;4863823;29;20190;-63
2022/04/16 04:10:40;;;;;;;32.77;19.07;;;9.90;99.90;;;;;;4880174;29;20189;-63
2022/04/16 04:13:06;;;;;;;43.37;24.97;;;9.90;99.90;;;;;;4880455;29;20202;-64
2022/04/16 04:15:32;;;;;;;29.73;19.63;;;9.90;99.90;;;;;;4863810;29;20218;-63
2022/04/16 04:17:59;;;;;;;33.77;19.73;;;9.90;99.90;;;;;;4880821;29;20617;-63
2022/04/16 04:20:25;;;;;;;30.67;18.53;;;9.90;99.90;;;;;;4880066;29;20239;-63
2022/04/16 04:22:51;;;;;;;27.37;18.30;;;9.80;99.90;;;;;;4880111;29;20202;-64
2022/04/16 04:25:17;;;;;;;25.63;15.77;;;9.80;99.90;;;;;;4879326;29;20193;-63
2022/04/16 04:27:43;;;;;;;28.37;17.20;;;9.70;99.90;;;;;;4878640;29;20194;-63
2022/04/16 04:30:09;;;;;;;26.73;16.03;;;9.70;99.90;;;;;;4879383;29;20536;-63
2022/04/16 04:32:36;;;;;;;23.53;15.30;;;9.70;99.90;;;;;;4879065;29;20209;-63
2022/04/16 04:35:02;;;;;;;26.73;15.00;;;9.80;99.90;;;;;;4879194;29;20196;-63
2022/04/16 04:37:28;;;;;;;26.53;16.73;;;9.90;99.90;;;;;;4879516;29;20658;-63
2022/04/16 04:39:54;;;;;;;25.33;15.53;;;9.90;99.90;;;;;;4879182;29;20193;-64
2022/04/16 04:42:31;;;;;;;26.00;16.07;;;10.00;99.90;;;;;;4879349;29;20186;-63
2022/04/16 04:44:57;;;;;;;23.47;14.37;;;10.00;99.90;;;;;;4878918;29;20497;-63
2022/04/16 04:47:23;;;;;;;25.10;15.90;;;10.10;99.90;;;;;;4877669;29;20337;-64
2022/04/16 04:49:49;;;;;;;26.13;15.40;;;10.20;99.90;;;;;;4879107;29;20195;-63
2022/04/16 04:52:24;;;;;;;28.13;16.70;;;10.30;99.90;;;;;;4879168;29;20314;-63
2022/04/16 04:54:50;;;;;;;32.53;17.20;;;10.30;99.90;;;;;;4878695;29;20498;-65
2022/04/16 04:57:16;;;;;;;35.10;19.33;;;10.30;99.90;;;;;;4878386;29;20415;-63
2022/04/16 04:59:43;;;;;;;33.00;21.27;;;10.40;99.90;;;;;;4878663;29;20294;-63
2022/04/16 05:02:09;;;;;;;33.20;19.67;;;10.50;99.90;;;;;;4878912;29;20202;-62
2022/04/16 05:04:35;;;;;;;32.57;19.73;;;10.60;99.90;;;;;;4878571;29;20189;-64
2022/04/16 05:07:03;;;;;;;35.27;20.27;;;10.60;99.90;;;;;;4878337;29;20314;-64
2022/04/16 05:09:29;;;;;;;35.93;19.10;;;10.70;99.90;;;;;;4878284;29;20196;-64
2022/04/16 05:11:55;;;;;;;21.97;12.70;;;10.70;99.90;;;;;;4878170;29;20262;-63
2022/04/16 05:14:21;;;;;;;20.93;14.07;;;10.70;99.90;;;;;;4876742;29;20283;-63
2022/04/16 05:16:48;;;;;;;24.37;14.90;;;10.70;99.90;;;;;;4878321;29;20199;-63
2022/04/16 05:19:14;;;;;;;25.80;14.20;;;10.80;99.90;;;;;;4878736;29;20270;-63
2022/04/16 05:21:40;;;;;;;22.10;14.47;;;10.90;99.90;;;;;;4878204;29;20644;-64
2022/04/16 05:24:06;;;;;;;24.37;14.50;;;11.00;99.90;;;;;;4878001;29;20667;-64
2022/04/16 05:26:38;;;;;;;23.57;13.97;;;11.10;99.90;;;;;;4878272;29;20227;-63
2022/04/16 05:29:04;;;;;;;22.23;14.73;;;11.00;99.90;;;;;;4878337;29;20216;-64
2022/04/16 05:31:30;;;;;;;28.30;13.67;;;11.00;99.90;;;;;;4878378;29;20252;-64
2022/04/16 05:36:42;;;;;;;25.33;14.93;;;11.00;99.90;;;;;;4863935;29;20225;-65
2022/04/16 05:39:09;;;;;;;24.97;14.80;;;11.10;99.90;;;;;;4877220;29;20267;-63
2022/04/16 05:41:36;;;;;;;26.07;13.60;;;11.10;99.90;;;;;;4877844;29;20190;-65
2022/04/16 05:44:04;;;;;;;22.10;13.87;;;11.20;99.90;;;;;;4877829;29;20197;-65
2022/04/16 05:46:30;;;;;;;24.57;15.37;;;11.20;99.90;;;;;;4877760;29;20658;-63
2022/04/16 05:48:56;;;;;;;21.03;14.20;;;11.20;99.90;;;;;;4877986;29;20190;-63
2022/04/16 05:51:23;;;;;;;25.27;15.93;;;11.10;99.90;;;;;;4861382;29;20265;-64
2022/04/16 05:53:49;;;;;;;28.67;17.07;;;11.10;99.90;;;;;;4877139;29;20181;-63
2022/04/16 05:56:16;;;;;;;30.50;18.53;;;11.00;99.90;;;;;;4877075;29;20313;-63
2022/04/16 05:58:42;;;;;;;31.40;17.87;;;11.10;99.90;;;;;;4877545;29;20206;-62
2022/04/16 06:01:09;;;;;;;28.73;18.87;;;11.00;99.90;;;;;;4877756;29;20182;-63
2022/04/16 06:03:39;;;;;;;32.93;19.40;;;11.10;99.90;;;;;;4877612;29;20265;-64
2022/04/16 06:06:06;;;;;;;31.43;18.80;;;11.20;99.90;;;;;;4877017;29;20297;-65
2022/04/16 06:08:32;;;;;;;33.00;19.87;;;11.20;99.90;;;;;;4876610;29;20183;-64
2022/04/16 06:10:58;;;;;;;29.00;18.83;;;11.30;99.90;;;;;;4877342;29;20630;-64
2022/04/16 06:13:24;;;;;;;30.43;19.53;;;11.30;99.90;;;;;;4877394;29;20482;-64
2022/04/16 06:15:50;;;;;;;37.70;20.20;;;11.30;99.90;;;;;;4877332;29;20202;-63
2022/04/16 06:18:15;;;;;;;31.93;20.33;;;11.30;99.90;;;;;;4877180;29;20200;-65
2022/04/16 06:20:41;;;;;;;36.93;21.43;;;11.40;99.90;;;;;;4877420;29;20200;-64
2022/04/16 06:23:07;;;;;;;30.37;18.07;;;11.40;99.90;;;;;;4877350;29;20189;-63
2022/04/16 06:25:34;;;;;;;39.13;21.50;;;11.50;99.90;;;;;;4876990;29;20188;-63
2022/04/16 06:28:00;;;;;;;35.00;21.57;;;11.60;99.90;;;;;;4876708;29;20668;-64
2022/04/16 06:30:26;;;;;;;45.57;22.90;;;11.70;99.90;;;;;;4877353;29;20603;-64
2022/04/16 06:32:52;;;;;;;38.70;21.50;;;11.80;99.90;;;;;;4859854;29;20201;-64
2022/04/16 06:35:17;;;;;;;39.80;22.33;;;11.80;99.90;;;;;;4876916;29;20208;-65
2022/04/16 06:37:43;;;;;;;45.90;24.70;;;11.90;99.90;;;;;;4876272;29;20202;-64
2022/04/16 06:40:10;;;;;;;42.07;23.97;;;11.90;99.90;;;;;;4877003;29;20296;-64
2022/04/16 06:42:37;;;;;;;42.07;22.70;;;12.00;99.90;;;;;;4877518;29;20332;-65
2022/04/16 06:45:08;;;;;;;35.80;22.20;;;11.90;99.90;;;;;;4876812;29;20218;-65
2022/04/16 06:47:34;;;;;;;40.13;23.67;;;11.90;99.90;;;;;;4877425;29;20304;-64
2022/04/16 06:50:00;;;;;;;37.30;22.93;;;11.90;99.90;;;;;;4879391;29;20177;-64
2022/04/16 06:52:26;;;;;;;40.27;23.10;;;11.80;99.90;;;;;;4866727;29;20598;-65
2022/04/16 06:54:51;;;;;;;34.77;22.77;;;11.80;99.90;;;;;;4883399;29;20188;-63
2022/04/16 06:57:17;;;;;;;35.27;22.57;;;11.80;99.90;;;;;;4882881;29;20645;-66
2022/04/16 06:59:43;;;;;;;40.77;22.60;;;11.80;99.90;;;;;;4883333;29;20721;-65
2022/04/16 07:02:10;;;;;;;39.70;21.43;;;11.90;99.90;;;;;;4883667;29;20181;-66
2022/04/16 07:04:37;;;;;;;29.70;18.13;;;11.90;99.90;;;;;;4881886;29;20198;-66
2022/04/16 07:07:03;;;;;;;38.33;21.13;;;11.80;99.90;;;;;;4883009;29;20333;-65
2022/04/16 07:09:29;;;;;;;34.20;21.70;;;11.70;99.90;;;;;;4883027;29;20187;-65
2022/04/16 07:11:55;;;;;;;34.13;20.77;;;11.80;99.90;;;;;;4882852;29;20194;-67
2022/04/16 07:14:21;;;;;;;38.53;20.33;;;11.90;99.90;;;;;;4883015;29;20177;-68
2022/04/16 07:16:47;;;;;;;34.33;20.80;;;12.00;99.90;;;;;;4851464;29;20221;-66
2022/04/16 07:19:13;;;;;;;34.43;21.37;;;12.40;99.90;;;;;;4883320;29;20182;-66
2022/04/16 07:21:39;;;;;;;33.97;21.17;;;12.50;99.90;;;;;;4883397;29;20509;-68
2022/04/16 07:24:05;;;;;;;33.20;21.53;;;12.70;99.90;;;;;;4882572;29;20194;-67
2022/04/16 07:26:30;;;;;;;35.03;20.93;;;12.60;99.90;;;;;;4882930;29;20701;-68
2022/04/16 07:28:56;;;;;;;34.37;20.60;;;12.80;99.90;;;;;;4882912;29;20202;-68
2022/04/16 07:31:22;;;;;;;33.40;20.43;;;12.90;99.90;;;;;;4883306;29;20596;-67
2022/04/16 07:33:48;;;;;;;37.33;20.90;;;12.80;99.90;;;;;;4883019;29;20613;-67
2022/04/16 07:36:14;;;;;;;34.60;19.83;;;12.90;99.90;;;;;;4883068;29;20714;-66
2022/04/16 07:38:43;;;;;;;35.40;20.63;;;12.60;99.90;;;;;;4883383;29;20208;-65
2022/04/16 07:41:10;;;;;;;31.83;20.97;;;12.60;99.90;;;;;;4882434;29;20249;-67
2022/04/16 07:43:36;;;;;;;38.23;20.40;;;12.60;99.90;;;;;;4882973;29;20189;-67
2022/04/16 07:46:01;;;;;;;29.93;18.27;;;12.70;99.90;;;;;;4865785;29;20233;-67
2022/04/16 07:48:27;;;;;;;31.90;18.73;;;12.80;99.90;;;;;;4882839;29;20543;-65
2022/04/16 08:37:31;;;;;;;25.87;17.63;;;12.60;99.90;;;;;;5120029;27;20538;-61
2022/04/16 08:39:57;;;;;;;30.43;18.93;;;12.50;99.90;;;;;;5081068;28;20234;-59
2022/04/16 08:42:23;;;;;;;25.83;15.00;;;12.50;99.90;;;;;;5107023;28;20641;-59
2022/04/16 08:44:49;;;;;;;26.47;14.23;;;12.50;99.90;;;;;;5090569;28;20246;-58
2022/04/16 08:47:16;;;;;;;20.90;12.03;;;12.40;99.90;;;;;;5086838;28;20602;-59
2022/04/16 08:49:43;;;;;;;16.23;10.57;;;12.20;99.90;;;;;;5053320;28;20482;-60
2022/04/16 08:52:10;;;;;;;18.67;9.13;;;12.10;99.90;;;;;;5092037;28;20184;-60
2022/04/16 08:54:39;;;;;;;11.37;7.33;;;11.90;99.90;;;;;;5090094;28;20272;-62
2022/04/16 08:57:05;;;;;;;18.17;8.93;;;11.90;99.90;;;;;;5106961;28;20676;-58
2022/04/16 08:59:31;;;;;;;15.10;8.93;;;12.00;99.90;;;;;;5106968;28;20650;-59
2022/04/16 09:01:59;;;;;;;12.40;8.00;;;12.00;99.90;;;;;;5072394;28;20179;-59
2022/04/16 09:04:31;;;;;;;12.10;7.70;;;12.40;99.90;;;;;;5108031;28;20246;-59
2022/04/16 09:06:58;;;;;;;12.73;7.67;;;12.80;99.90;;;;;;5106861;28;20262;-59
2022/04/16 09:09:24;;;;;;;10.10;6.13;;;13.10;99.90;;;;;;5099937;28;20227;-58
2022/04/16 09:11:50;;;;;;;7.10;4.83;;;13.30;99.90;;;;;;5088137;28;20616;-60
2022/04/16 09:14:17;;;;;;;8.37;4.40;;;13.20;99.90;;;;;;5069000;28;20189;-65
2022/04/16 09:16:43;;;;;;;6.67;4.40;;;13.20;99.90;;;;;;5087649;28;20306;-60
2022/04/16 09:19:16;;;;;;;7.00;4.40;;;13.20;99.90;;;;;;5069798;28;20186;-59
2022/04/16 09:21:43;;;;;;;6.30;4.33;;;13.10;99.90;;;;;;5085990;28;20177;-59
2022/04/16 09:24:11;;;;;;;7.90;4.00;;;13.30;99.90;;;;;;5069371;28;20187;-59
2022/04/16 09:26:39;;;;;;;7.43;4.90;;;13.30;99.90;;;;;;5086230;28;20298;-59
2022/04/16 09:29:13;;;;;;;8.07;3.70;;;13.60;99.90;;;;;;5085724;28;20241;-58
2022/04/16 09:31:40;;;;;;;12.60;5.10;;;13.80;99.90;;;;;;5068988;28;20267;-59
2022/04/16 09:34:14;;;;;;;8.50;3.80;;;14.00;99.90;;;;;;5068937;28;20189;-58
2022/04/16 09:36:43;;;;;;;5.00;3.83;;;14.40;99.90;;;;;;5082013;28;20226;-59
2022/04/16 09:39:11;;;;;;;5.17;2.90;;;14.70;99.90;;;;;;5072427;28;20182;-60
2022/04/16 09:41:40;;;;;;;4.07;2.20;;;14.90;99.90;;;;;;5071729;28;20177;-59
2022/04/16 09:44:28;;;;;;;5.13;2.70;;;15.30;99.90;;;;;;5084190;28;20177;-61
2022/04/16 09:46:55;;;;;;;14.93;3.70;;;15.60;99.90;;;;;;5093317;28;20534;-61
2022/04/16 09:49:21;;;;;;;6.50;2.43;;;15.80;99.90;;;;;;5091902;28;20313;-59
2022/04/16 09:51:49;;;;;;;11.90;3.00;;;15.80;99.90;;;;;;5092022;28;20191;-58
2022/04/16 09:54:15;;;;;;;7.03;3.20;;;15.60;99.90;;;;;;5058437;28;20568;-59
2022/04/16 09:56:49;;;;;;;4.17;2.80;;;15.60;99.90;;;;;;5058041;28;20185;-59
2022/04/16 09:59:16;;;;;;;10.30;3.70;;;15.80;99.90;;;;;;5091682;28;20185;-58
2022/04/16 10:01:48;;;;;;;5.07;2.73;;;16.00;99.90;;;;;;5057086;28;20190;-60
2022/04/16 10:04:18;;;;;;;8.50;2.90;;;16.20;99.90;;;;;;5091331;28;20185;-59
2022/04/16 10:06:45;;;;;;;5.20;3.23;;;16.30;99.90;;;;;;5092968;28;20223;-60
2022/04/16 10:09:17;;;;;;;7.93;4.17;;;16.60;99.90;;;;;;5092708;28;20178;-58
2022/04/16 10:14:44;;;;;;;5.27;3.30;;;16.10;99.90;;;;;;5092158;28;20207;-59
2022/04/16 10:17:32;;;;;;;11.17;4.30;;;15.10;99.90;;;;;;5090993;28;20178;-58
2022/04/16 10:20:14;;;;;;;12.37;5.03;;;15.20;99.90;;;;;;5091066;28;20191;-57
2022/04/16 10:22:40;;;;;;;8.47;4.03;;;15.40;99.90;;;;;;5092504;28;20580;-59
2022/04/16 10:25:07;;;;;;;8.23;4.70;;;15.30;99.90;;;;;;5074573;28;20307;-59
2022/04/16 10:27:42;;;;;;;7.47;4.57;;;15.20;99.90;;;;;;5090756;28;20250;-59
2022/04/16 10:30:10;;;;;;;7.87;4.97;;;15.50;99.90;;;;;;5091436;28;20214;-58
2022/04/16 10:32:41;;;;;;;9.40;4.60;;;15.70;99.90;;;;;;5092590;28;20172;-58
2022/04/16 10:35:13;;;;;;;7.93;5.10;;;15.60;99.90;;;;;;5090604;28;20513;-57
2022/04/16 10:37:42;;;;;;;8.33;5.93;;;15.70;99.90;;;;;;5092199;28;20581;-59
2022/04/16 10:40:25;;;;;;;12.67;6.90;;;15.60;99.90;;;;;;5092155;28;20223;-59
2022/04/16 10:43:01;;;;;;;12.53;6.87;;;15.40;99.90;;;;;;5089233;28;20229;-59
2022/04/16 10:45:27;;;;;;;9.10;5.93;;;15.30;99.90;;;;;;5053411;28;20206;-58
2022/04/16 10:47:56;;;;;;;16.23;6.47;;;15.10;99.90;;;;;;5071579;28;20189;-59
2022/04/16 10:50:23;;;;;;;18.20;5.90;;;14.70;99.90;;;;;;5070087;28;20264;-61
2022/04/16 10:52:56;;;;;;;9.47;6.13;;;14.40;99.90;;;;;;5070527;28;20478;-57
2022/04/16 10:55:36;;;;;;;14.97;6.60;;;14.40;99.90;;;;;;5071331;28;20658;-62
2022/04/16 10:58:08;;;;;;;11.23;6.80;;;14.60;99.90;;;;;;5071362;28;20210;-59
2022/04/16 11:00:45;;;;;;;13.80;6.00;;;14.90;99.90;;;;;;5054247;28;20184;-59
2022/04/16 11:03:19;;;;;;;8.97;5.73;;;15.00;99.90;;;;;;5072343;28;20250;-59
2022/04/16 11:05:45;;;;;;;8.83;5.90;;;15.70;99.90;;;;;;5072624;28;20247;-60
2022/04/16 11:08:17;;;;;;;8.50;5.43;;;16.00;99.90;;;;;;5072265;28;20605;-58
2022/04/16 11:10:43;;;;;;;9.57;5.47;;;15.90;99.90;;;;;;5070259;28;20923;-58
2022/04/16 11:13:12;;;;;;;9.10;5.20;;;15.50;99.90;;;;;;5037741;28;20680;-56
2022/04/16 11:15:41;;;;;;;10.40;5.87;;;15.20;99.90;;;;;;5071876;28;20585;-57
2022/04/16 11:18:07;;;;;;;10.37;6.00;;;15.00;99.90;;;;;;5070588;28;20182;-59
2022/04/16 11:20:33;;;;;;;10.63;5.77;;;15.00;99.90;;;;;;5071497;28;20178;-58
2022/04/16 11:22:59;;;;;;;10.13;5.70;;;14.90;99.90;;;;;;5053615;28;20218;-59
2022/04/16 11:34:14;;;;;;;10.10;5.80;;;15.00;99.90;;;;;;5071068;28;20201;-59
2022/04/16 11:36:28;;;;;;;10.90;4.97;;;15.90;99.90;;;;;;5071115;28;20373;-58
2022/04/16 11:38:54;;;;;;;9.50;5.03;;;15.90;99.90;;;;;;5070015;28;20659;-58
2022/04/16 11:41:21;;;;;;;11.40;5.77;;;16.00;99.30;;;;;;5053547;28;20185;-58
2022/04/16 11:43:51;;;;;;;7.97;5.50;;;15.80;99.50;;;;;;5079040;28;20192;-59
2022/04/16 11:46:17;;;;;;;10.93;5.83;;;15.90;99.30;;;;;;5073923;28;20232;-59
2022/04/16 11:48:48;;;;;;;8.90;5.30;;;16.10;99.00;;;;;;5091137;28;20184;-64
2022/04/16 11:51:15;;;;;;;11.80;7.13;;;16.10;98.70;;;;;;5092196;28;20271;-57
2022/04/16 11:53:45;;;;;;;11.33;7.10;;;15.80;99.20;;;;;;5089741;28;20200;-61
2022/04/16 11:56:11;;;;;;;12.10;7.20;;;15.60;99.50;;;;;;5073095;28;20189;-59
2022/04/16 11:58:37;;;;;;;10.77;6.87;;;15.30;99.90;;;;;;5072971;28;20185;-59
2022/04/16 12:01:04;;;;;;;13.70;7.53;;;14.80;99.90;;;;;;5090097;28;20234;-58
2022/04/16 12:03:37;;;;;;;13.57;7.93;;;14.40;99.90;;;;;;5056292;28;20275;-58
2022/04/16 12:06:07;;;;;;;16.17;7.97;;;14.00;99.90;;;;;;5089217;28;20270;-60
2022/04/16 12:08:34;;;;;;;11.77;7.90;;;13.80;99.90;;;;;;5089957;28;20188;-59
2022/04/16 12:11:00;;;;;;;12.33;7.30;;;13.50;99.90;;;;;;5090122;28;20241;-58
2022/04/16 12:13:35;;;;;;;13.37;8.30;;;12.80;99.90;;;;;;5072841;28;20180;-64
2022/04/16 12:16:12;;;;;;;16.63;9.67;;;12.40;99.90;;;;;;5091244;28;20190;-58
2022/04/16 12:18:41;;;;;;;12.47;8.33;;;12.20;99.90;;;;;;5089596;28;20663;-60
2022/04/16 12:21:09;;;;;;;14.67;8.90;;;12.10;99.90;;;;;;5089966;28;20486;-60
2022/04/16 12:23:38;;;;;;;13.03;7.50;;;12.10;99.90;;;;;;5090501;28;20185;-61
2022/04/16 12:26:09;;;;;;;16.03;8.87;;;12.00;99.90;;;;;;5091185;28;20203;-61
2022/04/16 12:28:40;;;;;;;17.77;10.57;;;11.90;99.90;;;;;;5090440;28;20198;-59
2022/04/16 12:31:06;;;;;;;22.70;10.87;;;11.90;99.90;;;;;;5089547;28;20194;-59
2022/04/16 12:33:32;;;;;;;16.70;10.07;;;11.80;99.90;;;;;;5072691;28;20185;-57
2022/04/16 12:35:59;;;;;;;24.37;14.00;;;11.70;99.90;;;;;;5072829;28;20249;-56
2022/04/16 12:38:25;;;;;;;26.03;14.33;;;11.50;99.90;;;;;;5089081;28;20197;-55
2022/04/16 12:41:09;;;;;;;21.13;12.13;;;11.30;99.90;;;;;;5089908;28;20195;-52
2022/04/16 12:43:35;;;;;;;23.90;12.97;;;11.20;99.90;;;;;;5064693;28;20190;-53
2022/04/16 12:46:01;;;;;;;38.50;20.03;;;10.90;99.90;;;;;;5069276;28;20260;-56
2022/04/16 12:48:28;;;;;;;38.97;21.87;;;10.70;99.90;;;;;;5069540;28;20216;-56
2022/04/16 12:50:54;;;;;;;22.97;11.37;;;10.60;99.90;;;;;;5070808;28;20184;-61
2022/04/16 12:53:20;;;;;;;49.93;25.90;;;10.40;99.90;;;;;;5069384;28;20219;-55
2022/04/16 12:55:46;;;;;;;38.37;19.87;;;10.40;99.90;;;;;;5069543;28;20219;-57
2022/04/16 12:58:12;;;;;;;21.63;12.67;;;10.40;99.90;;;;;;5070964;28;20184;-57
2022/04/16 13:00:39;;;;;;;20.70;11.53;;;10.40;99.90;;;;;;5070846;28;20179;-57
2022/04/16 13:03:06;;;;;;;21.50;12.70;;;10.40;99.90;;;;;;5069403;28;20190;-60
2022/04/16 13:05:33;;;;;;;23.90;13.77;;;10.30;99.90;;;;;;5052354;28;20283;-56
2022/04/16 13:07:59;;;;;;;24.77;13.17;;;10.30;99.90;;;;;;5070470;28;20308;-57
2022/04/16 13:10:27;;;;;;;22.27;9.53;;;10.30;99.90;;;;;;5069492;28;20545;-60
2022/04/16 13:12:53;;;;;;;0.93;0.93;;;10.30;99.90;;;;;;5070875;28;20228;-56
2022/04/16 13:15:19;;;;;;;2.10;1.33;;;10.30;99.90;;;;;;5074669;28;20276;-58
2022/04/16 13:17:45;;;;;;;3.33;3.03;;;10.30;99.90;;;;;;5074497;28;20322;-58
2022/04/16 13:20:12;;;;;;;3.17;2.87;;;10.30;99.90;;;;;;5073093;28;20556;-57
2022/04/16 13:22:39;;;;;;;3.97;3.57;;;10.30;99.90;;;;;;5073264;28;20190;-56
2022/04/16 13:25:06;;;;;;;2.87;1.77;;;10.40;99.90;;;;;;5074429;28;20298;-55
2022/04/16 13:27:32;;;;;;;6.57;2.20;;;10.40;99.90;;;;;;5074327;28;20203;-61
2022/04/16 13:29:58;;;;;;;5.40;2.97;;;10.30;99.90;;;;;;5087565;28;20211;-57
2022/04/16 13:32:24;;;;;;;3.20;2.70;;;10.30;99.90;;;;;;5072960;28;20186;-58
2022/04/16 13:34:50;;;;;;;4.53;2.70;;;10.30;99.90;;;;;;5072394;28;20199;-62
2022/04/16 13:37:16;;;;;;;0.40;0.40;;;10.20;99.90;;;;;;5063430;28;20231;-62
2022/04/16 13:42:26;;;;;;;1.47;0.80;;;10.00;99.90;;;;;;5079107;28;20240;-56
2022/04/16 13:44:54;;;;;;;1.23;0.83;;;10.00;99.90;;;;;;5082625;28;20187;-59
2022/04/16 13:47:21;;;;;;;1.53;1.20;;;9.90;99.90;;;;;;5080857;28;20195;-60
2022/04/16 13:49:47;;;;;;;0.83;0.83;;;9.80;99.90;;;;;;5060469;28;20195;-61